Latest Weather Observations for Tuggeranong

IDN60901

Issued at 6:51 pm EST Friday 21 July 2017 (issued every 10 minutes, with the page automatically refreshed every 10 minutes)

About weather observations | Map of Canberra area stations | Latest observations for Canberra area | Other Formats
Station Details ID: 070339 Name: TUGGERANONG (ISABELLA PLAINS) AWS Lat: -35.42 Lon: 149.09 Height: 586.7 m
Data from the previous 72 hours. | See also: Recent months at Tuggeranong
Date/Time
EST
Temp
°C
App
Temp
°C
Dew
Point
°C
Rel
Hum
%
Delta-T
°C
Wind Press
QNH
hPa
Press
MSL
hPa
Rain since
9am
mm
Dir  Spd
km/h
Gust
km/h
Spd
kts
Gust
kts
21/06:30pm 4.2 2.3 0.7 78 1.4 CALM 0 0 0 0 1022.3 1023.4 0.0
21/06:00pm 5.4 3.5 0.8 72 1.9 CALM 0 0 0 0 1022.1 1023.2 0.0
21/05:30pm 7.6 5.4 0.8 62 2.8 NW 2 7 1 4 1021.8 1022.9 0.0
21/05:00pm 9.7 6.5 0.9 54 3.7 NW 7 11 4 6 1021.7 1022.8 0.0
21/04:30pm 11.0 7.8 1.0 50 4.3 NW 7 13 4 7 1021.4 1022.5 0.0
21/04:00pm 11.4 8.3 1.1 49 4.4 NNW 7 13 4 7 1021.3 1022.4 0.0
21/03:30pm 11.7 9.1 1.1 48 4.6 NNE 4 7 2 4 1021.2 1022.2 0.0
21/03:00pm 11.9 8.4 1.0 47 4.7 WNW 9 13 5 7 1020.9 1022.0 0.0
21/02:30pm 10.8 7.7 0.2 48 4.5 WNW 6 11 3 6 1020.9 1022.0 0.0
21/02:00pm 11.5 8.4 1.5 50 4.4 WNW 7 15 4 8 1021.2 1022.2 0.0
21/01:30pm 11.2 8.0 0.9 49 4.4 NNW 7 9 4 5 1021.4 1022.5 0.0
21/01:00pm 10.6 7.6 0.9 51 4.1 WSW 6 11 3 6 1021.6 1022.7 0.0
21/12:30pm 10.2 7.2 1.1 53 3.9 NNW 6 13 3 7 1022.0 1023.1 0.0
21/12:00pm 9.9 6.3 0.8 53 3.8 SSW 9 15 5 8 1022.5 1023.6 0.0
21/11:30am 9.7 7.1 1.1 55 3.7 W 4 11 2 6 1022.9 1024.0 0.0
21/11:00am 8.5 5.5 0.7 58 3.2 WNW 6 13 3 7 1023.0 1024.1 0.0
21/10:30am 7.3 4.6 0.1 60 2.9 S 4 9 2 5 1023.2 1024.3 0.0
21/10:00am 6.5 3.3 0.6 66 2.4 WSW 7 13 4 7 1023.1 1024.2 0.0
21/09:30am 5.6 2.5 0.0 67 2.2 NNW 6 11 3 6 1022.9 1024.0 0.0
21/09:00am 3.0 0.6 -0.3 79 1.3 NW 2 7 1 4 1022.5 1023.6 0.0
21/08:30am 0.2 -2.0 -1.4 89 0.6 CALM 0 0 0 0 1022.1 1023.2 0.0
21/08:00am -1.6 -4.6 -1.7 99 0.0 WNW 4 7 2 4 1021.8 1022.9 0.0
21/07:30am -3.7 -7.0 -4.2 96 0.0 W 4 7 2 4 1021.6 1022.7 0.0
21/07:00am -3.4 -7.0 -3.9 96 0.0 NW 6 9 3 5 1021.2 1022.2 0.0
21/06:30am -3.6 -6.1 -4.4 94 0.1 CALM 0 0 0 0 1020.5 1021.6 0.0
21/06:00am -3.7 -6.3 -4.5 94 0.1 CALM 0 0 0 0 1020.3 1021.4 0.0
21/05:30am -4.1 -7.5 -5.2 92 0.2 NW 4 11 2 6 1019.8 1020.8 0.0
21/05:00am -4.0 -6.6 -5.2 91 0.2 CALM 0 0 0 0 1019.3 1020.3 0.0
21/04:30am -4.0 -6.6 -5.1 92 0.2 CALM 0 0 0 0 1019.1 1020.2 0.0
21/04:00am -3.7 -6.3 -4.8 92 0.2 CALM 0 0 0 0 1019.0 1020.1 0.0
21/03:30am -3.2 -5.7 -4.2 93 0.2 CALM 0 0 0 0 1018.9 1020.0 0.0
21/03:00am -2.8 -6.6 -3.5 95 0.1 E 7 11 4 6 1018.8 1019.9 0.0
21/02:30am -3.3 -5.8 -4.4 92 0.2 CALM 0 0 0 0 1018.8 1019.9 0.0
21/02:00am -3.3 -5.8 -4.4 92 0.2 CALM 0 0 0 0 1018.9 1020.0 0.0
21/01:30am -3.4 -6.4 -4.7 91 0.3 WSW 2 7 1 4 1018.8 1019.9 0.0
21/01:00am -2.7 -5.2 -4.1 90 0.3 CALM 0 7 0 4 1018.9 1020.0 0.0
21/12:30am -2.0 -4.5 -3.6 89 0.4 CALM 0 7 0 4 1018.7 1019.8 0.0
21/12:00am -2.1 -4.6 -4.4 84 0.7 CALM 0 0 0 0 1018.4 1019.5 0.0
 
Date/Time
EST
Temp
°C
App
Temp
°C
Dew
Point
°C
Rel
Hum
%
Delta-T
°C
Wind Press
QNH
hPa
Press
MSL
hPa
Rain since
9am
mm
Dir  Spd
km/h
Gust
km/h
Spd
kts
Gust
kts
20/11:30pm -1.5 -5.1 -3.8 84 0.7 W 6 7 3 4 1018.1 1019.1 0.0
20/11:00pm -0.3 -4.0 -2.5 85 0.8 S 7 11 4 6 1017.8 1018.8 0.0
20/10:30pm -0.9 -3.1 -1.9 93 0.3 CALM 0 6 0 3 1017.7 1018.7 0.0
20/10:00pm -0.8 -3.5 -2.1 91 0.4 WNW 2 7 1 4 1017.7 1018.7 0.0
20/09:30pm -0.1 -2.3 -1.8 88 0.6 CALM 0 0 0 0 1017.6 1018.6 0.0
20/09:00pm 0.9 -1.3 -1.2 86 0.8 CALM 0 0 0 0 1017.2 1018.3 0.0
20/08:30pm 2.2 -0.3 -0.7 81 1.1 SSE 2 9 1 5 1016.8 1017.8 0.0
20/08:00pm 3.5 1.1 -0.1 77 1.4 NW 2 9 1 5 1016.5 1017.5 0.0
20/07:30pm 4.1 2.0 -0.5 72 1.8 CALM 0 0 0 0 1016.3 1017.3 0.0
20/07:00pm 5.2 1.1 0.0 69 2.1 SE 11 17 6 9 1016.0 1017.0 0.0
20/06:30pm 4.6 2.4 -1.4 65 2.3 CALM 0 0 0 0 1015.4 1016.4 0.0
20/06:00pm 5.3 1.4 -1.8 60 2.7 WSW 9 15 5 8 1014.9 1015.9 0.0
20/05:30pm 6.7 2.0 -1.9 54 3.3 WSW 13 22 7 12 1014.4 1015.4 0.0
20/05:00pm 7.2 2.1 -2.2 51 3.6 WSW 15 26 8 14 1013.9 1014.8 0.0
20/04:30pm 8.1 2.6 -2.2 48 4.0 WSW 17 26 9 14 1013.5 1014.5 0.0
20/04:00pm 8.9 2.4 -2.4 45 4.4 WSW 22 37 12 20 1013.3 1014.3 0.0
20/03:30pm 9.2 3.2 -1.2 48 4.2 W 20 26 11 14 1013.0 1014.0 0.0
20/03:00pm 9.7 4.3 -1.1 47 4.4 WNW 17 30 9 16 1012.7 1013.7 0.0
20/02:30pm 10.1 4.6 -2.2 42 4.9 W 17 24 9 13 1012.7 1013.7 0.0
20/02:00pm 9.7 3.4 -1.3 46 4.4 WNW 22 33 12 18 1012.5 1013.4 0.0
20/01:30pm 10.7 4.8 -0.7 45 4.7 WNW 20 32 11 17 1012.3 1013.2 0.0
20/01:00pm 10.2 4.0 -2.8 40 5.1 W 20 33 11 18 1012.3 1013.2 0.0
20/12:30pm 10.9 4.9 -1.8 41 5.1 NW 20 26 11 14 1012.2 1013.1 0.0
20/12:00pm 10.6 4.2 -1.8 42 5.0 WNW 22 32 12 17 1012.3 1013.2 0.0
20/11:30am 10.1 3.7 -1.9 43 4.8 WNW 22 35 12 19 1012.7 1013.7 0.0
20/11:00am 9.6 4.2 -1.1 47 4.3 NW 17 26 9 14 1012.9 1013.9 0.0
20/10:30am 8.9 4.1 -0.1 53 3.7 N 15 20 8 11 1013.4 1014.4 0.0
20/10:00am 9.0 5.2 -0.9 50 4.0 NNW 9 15 5 8 1013.4 1014.4 0.0
20/09:30am 7.7 3.9 -0.5 56 3.3 NW 9 15 5 8 1013.4 1014.4 0.0
20/09:00am 6.7 3.1 0.6 65 2.5 NW 9 15 5 8 1013.2 1014.2 0.0
20/08:30am 4.0 2.2 1.4 83 1.1 CALM 0 0 0 0 1013.1 1014.1 0.0
20/08:00am 1.7 -1.0 0.4 91 0.5 NNW 4 13 2 7 1013.1 1014.1 0.0
20/07:30am 0.2 -3.0 -0.8 93 0.4 W 6 9 3 5 1013.0 1014.0 0.0
20/07:00am 2.0 0.2 1.0 93 0.4 CALM 0 6 0 3 1012.8 1013.8 0.0
20/06:30am 0.1 -2.7 -0.7 94 0.3 ESE 4 9 2 5 1012.6 1013.5 0.0
20/06:00am 0.1 -2.7 -0.6 95 0.3 E 4 9 2 5 1012.2 1013.1 0.0
20/05:30am -0.3 -4.1 -0.4 99 0.0 E 9 15 5 8 1012.1 1013.0 0.0
20/05:00am -2.9 -5.4 -3.7 94 0.1 CALM 0 0 0 0 1012.5 1013.4 0.0
20/04:30am -2.0 -5.4 -2.4 97 0.0 SSE 6 9 3 5 1012.3 1013.2 0.0
20/04:00am -1.3 -4.2 -1.4 99 0.0 E 4 7 2 4 1012.2 1013.1 0.0
20/03:30am -1.3 -4.6 -1.4 99 0.0 E 6 7 3 4 1012.1 1013.0 0.0
20/03:00am -2.1 -4.4 -2.5 97 0.0 CALM 0 6 0 3 1012.6 1013.5 0.0
20/02:30am -1.7 -4.4 -2.1 97 0.1 ESE 2 7 1 4 1012.5 1013.4 0.0
20/02:00am -1.6 -3.9 -2.2 96 0.1 CALM 0 6 0 3 1012.6 1013.5 0.0
20/01:30am -1.0 -3.2 -1.4 97 0.1 CALM 0 7 0 4 1012.7 1013.7 0.0
20/01:00am -0.7 -3.6 -1.3 96 0.2 NNW 4 11 2 6 1012.8 1013.8 0.0
20/12:30am 0.0 -2.1 -0.7 95 0.3 CALM 0 6 0 3 1012.5 1013.4 0.0
20/12:00am 0.4 -1.7 -0.6 93 0.4 CALM 0 0 0 0 1012.5 1013.4 0.0
 
Date/Time
EST
Temp
°C
App
Temp
°C
Dew
Point
°C
Rel
Hum
%
Delta-T
°C
Wind Press
QNH
hPa
Press
MSL
hPa
Rain since
9am
mm
Dir  Spd
km/h
Gust
km/h
Spd
kts
Gust
kts
19/11:30pm 1.0 -1.7 0.0 93 0.4 E 4 7 2 4 1012.6 1013.5 0.0
19/11:00pm 1.6 -0.3 0.3 91 0.5 CALM 0 6 0 3 1012.6 1013.5 0.0
19/10:30pm 2.3 -0.3 0.7 89 0.6 E 4 9 2 5 1012.3 1013.2 0.0
19/10:00pm 2.5 -0.5 0.7 88 0.7 E 6 11 3 6 1012.7 1013.7 0.0
19/09:30pm 2.6 0.4 0.8 88 0.7 E 2 7 1 4 1012.7 1013.7 0.0
19/09:00pm 3.2 1.4 0.9 85 0.9 CALM 0 7 0 4 1012.2 1013.1 0.0
19/08:30pm 4.4 1.8 1.1 79 1.3 E 4 7 2 4 1012.1 1013.0 0.0
19/08:00pm 6.0 3.0 1.9 75 1.7 WNW 7 11 4 6 1011.9 1012.9 0.0
19/07:30pm 5.2 3.5 1.7 78 1.4 CALM 0 7 0 4 1012.1 1013.0 0.0
19/07:00pm 6.0 2.6 1.9 75 1.7 WNW 9 15 5 8 1011.3 1012.3 0.0
19/06:30pm 6.4 3.5 1.7 72 2.0 WNW 6 7 3 4 1010.8 1011.7 0.0
19/06:00pm 7.7 5.2 1.5 65 2.6 WNW 4 9 2 5 1010.6 1011.5 0.0
19/05:30pm 8.8 4.2 1.7 61 3.0 W 15 22 8 12 1010.4 1011.3 0.0
19/05:00pm 9.7 4.2 1.8 58 3.4 W 20 30 11 16 1009.7 1010.6 0.0
19/04:30pm 11.1 6.1 1.6 52 4.2 W 17 24 9 13 1009.1 1010.0 0.0
19/04:00pm 12.1 7.2 1.7 49 4.6 W 17 24 9 13 1008.9 1009.8 0.0
19/03:30pm 12.2 6.8 1.5 48 4.7 W 19 28 10 15 1008.7 1009.6 0.0
19/03:00pm 12.6 6.7 1.9 48 4.8 W 22 33 12 18 1008.4 1009.3 0.0
19/02:30pm 12.9 6.9 1.0 44 5.2 WSW 22 33 12 18 1007.6 1008.5 0.0
19/02:00pm 13.1 8.8 0.8 43 5.4 WSW 13 22 7 12 1007.2 1008.1 0.0
19/01:30pm 12.2 7.6 1.8 49 4.6 W 15 24 8 13 1007.2 1008.1 0.0
19/01:00pm 12.0 6.0 1.3 48 4.7 W 22 30 12 16 1007.2 1008.1 0.0
19/12:30pm 11.6 5.7 1.8 51 4.3 W 22 32 12 17 1007.1 1008.0 0.0
19/12:00pm 11.1 5.5 1.4 51 4.2 W 20 28 11 15 1007.4 1008.3 0.0
19/11:30am 10.5 5.1 1.1 52 4.0 WNW 19 28 10 15 1007.9 1008.8 0.0
19/11:00am 10.2 4.6 1.1 53 3.9 W 20 32 11 17 1008.1 1009.0 0.0
19/10:30am 9.4 4.5 2.0 60 3.2 WNW 17 24 9 13 1008.2 1009.1 0.0
19/10:00am 9.2 4.9 3.0 65 2.8 NW 15 22 8 12 1008.2 1009.1 0.0
19/09:30am 8.4 4.4 2.6 67 2.5 NW 13 22 7 12 1007.9 1008.8 0.0
19/09:00am 7.5 6.1 3.6 76 1.7 CALM 0 6 0 3 1007.7 1008.6 0.8
19/08:30am 5.5 3.0 3.8 89 0.7 ESE 6 7 3 4 1007.5 1008.4 0.8
19/08:00am 4.9 2.3 3.4 90 0.6 NNW 6 13 3 7 1007.2 1008.1 0.8
19/07:30am 4.4 1.9 3.5 94 0.4 N 6 13 3 7 1006.9 1007.7 0.8
19/07:00am 3.7 0.8 2.4 91 0.5 ESE 7 11 4 6 1006.8 1007.6 0.8
19/06:30am 4.3 1.3 2.3 87 0.8 NNW 7 13 4 7 1006.3 1007.2 0.8
19/06:00am 4.7 1.4 2.2 84 1.0 NNW 9 15 5 8 1006.1 1007.0 0.8
19/05:30am 5.0 1.4 3.0 87 0.9 N 11 19 6 10 1006.1 1007.0 0.8
19/05:00am 5.6 2.3 2.4 80 1.4 NNW 9 17 5 9 1006.1 1007.0 0.8
19/04:30am 5.5 1.4 2.3 80 1.3 NW 13 19 7 10 1005.9 1006.8 0.8
19/04:00am 5.9 2.3 2.9 81 1.3 N 11 13 6 7 1006.2 1007.1 0.8
19/03:30am 6.2 2.6 2.7 78 1.5 N 11 15 6 8 1006.2 1007.1 0.8
19/03:00am 6.4 3.1 2.5 76 1.7 NNW 9 15 5 8 1006.2 1007.1 0.8
19/02:30am 6.2 3.5 3.5 83 1.2 NNE 7 15 4 8 1006.4 1007.3 0.8
19/02:00am 5.9 2.8 3.7 86 1.0 N 9 13 5 7 1006.9 1007.7 0.8
19/01:30am 6.1 2.6 3.6 84 1.1 N 11 17 6 9 1007.0 1007.9 0.6
19/01:00am 6.4 3.2 3.0 79 1.5 N 9 15 5 8 1007.1 1008.0 0.6
19/12:30am 6.4 3.6 3.4 81 1.3 NNE 7 15 4 8 1007.6 1008.5 0.6
19/12:00am 6.3 3.5 3.1 80 1.4 N 7 9 4 5 1007.9 1008.8 0.6
 
Date/Time
EST
Temp
°C
App
Temp
°C
Dew
Point
°C
Rel
Hum
%
Delta-T
°C
Wind Press
QNH
hPa
Press
MSL
hPa
Rain since
9am
mm
Dir  Spd
km/h
Gust
km/h
Spd
kts
Gust
kts
18/11:30pm 6.3 2.7 2.9 79 1.5 NNW 11 15 6 8 1008.4 1009.3 0.6
18/11:00pm 5.9 2.3 3.2 83 1.2 NE 11 17 6 9 1008.5 1009.4 0.6
18/10:30pm 5.6 2.1 3.6 87 0.9 N 11 19 6 10 1008.6 1009.5 0.6
18/10:00pm 5.8 1.9 3.3 84 1.1 N 13 20 7 11 1008.8 1009.7 0.6
18/09:30pm 5.8 2.2 3.0 82 1.2 NNW 11 20 6 11 1009.2 1010.1 0.6
18/09:00pm 6.5 1.9 3.5 81 1.3 NW 17 28 9 15 1009.2 1010.1 0.6
18/08:30pm 6.8 3.3 3.4 79 1.5 NW 11 20 6 11 1009.1 1010.0 0.4
18/08:00pm 6.8 1.7 3.2 78 1.6 NW 19 30 10 16 1009.1 1010.0 0.2
18/07:30pm 6.9 3.6 2.6 74 1.8 NW 9 15 5 8 1009.2 1010.1 0.2
18/07:00pm 6.3 3.9 2.4 76 1.7 N 4 9 2 5 1009.3 1010.2 0.2

Latest Capital City Observations: Canberra | Sydney | Melbourne | Brisbane | Adelaide | Perth | Hobart | Darwin

Other Formats:

Comma delimited format used in spreadsheet applications
http://www.bom.gov.au/fwo/IDN60903/IDN60903.94925.axf

JavaScript Object Notation format (JSON) in row-major order
http://www.bom.gov.au/fwo/IDN60903/IDN60903.94925.json